sensor_id;sensor_type;location;lat;lon;timestamp;pressure;altitude;pressure_sealevel;temperature;humidity
54042;BME280;41156;51.508;5.406;2023-01-26T00:00:58;102452.09;;;-1.51;100.00
54042;BME280;41156;51.508;5.406;2023-01-26T00:03:59;102448.50;;;-1.50;100.00
54042;BME280;41156;51.508;5.406;2023-01-26T00:06:59;102452.75;;;-1.47;100.00
54042;BME280;41156;51.508;5.406;2023-01-26T00:09:59;102448.50;;;-1.50;100.00
54042;BME280;41156;51.508;5.406;2023-01-26T00:12:59;102436.09;;;-1.49;100.00
54042;BME280;41156;51.508;5.406;2023-01-26T00:16:00;102437.72;;;-1.46;100.00
54042;BME280;41156;51.508;5.406;2023-01-26T00:19:01;102429.75;;;-1.46;100.00
54042;BME280;41156;51.508;5.406;2023-01-26T00:22:02;102428.16;;;-1.49;100.00
54042;BME280;41156;51.508;5.406;2023-01-26T00:25:02;102423.59;;;-1.47;100.00
54042;BME280;41156;51.508;5.406;2023-01-26T00:28:03;102425.69;;;-1.52;100.00
54042;BME280;41156;51.508;5.406;2023-01-26T00:31:10;102423.88;;;-1.52;100.00
54042;BME280;41156;51.508;5.406;2023-01-26T00:34:11;102424.56;;;-1.48;100.00
54042;BME280;41156;51.508;5.406;2023-01-26T00:37:12;102424.47;;;-1.46;100.00
54042;BME280;41156;51.508;5.406;2023-01-26T00:40:12;102413.94;;;-1.48;100.00
54042;BME280;41156;51.508;5.406;2023-01-26T00:43:12;102410.31;;;-1.47;100.00
54042;BME280;41156;51.508;5.406;2023-01-26T00:46:12;102404.09;;;-1.46;100.00
54042;BME280;41156;51.508;5.406;2023-01-26T00:49:13;102404.19;;;-1.47;100.00
54042;BME280;41156;51.508;5.406;2023-01-26T00:52:13;102398.88;;;-1.47;100.00
54042;BME280;41156;51.508;5.406;2023-01-26T00:55:13;102391.03;;;-1.49;100.00
54042;BME280;41156;51.508;5.406;2023-01-26T00:58:14;102391.03;;;-1.49;100.00
54042;BME280;41156;51.508;5.406;2023-01-26T01:01:14;102383.16;;;-1.51;100.00
54042;BME280;41156;51.508;5.406;2023-01-26T01:04:15;102380.50;;;-1.51;100.00
54042;BME280;41156;51.508;5.406;2023-01-26T01:07:15;102377.66;;;-1.47;100.00
54042;BME280;41156;51.508;5.406;2023-01-26T01:10:15;102385.81;;;-1.51;100.00
54042;BME280;41156;51.508;5.406;2023-01-26T01:13:16;102377.56;;;-1.46;100.00
54042;BME280;41156;51.508;5.406;2023-01-26T01:16:16;102368.78;;;-1.46;100.00
54042;BME280;41156;51.508;5.406;2023-01-26T01:19:17;102379.56;;;-1.50;100.00
54042;BME280;41156;51.508;5.406;2023-01-26T01:22:17;102381.06;;;-1.45;100.00
54042;BME280;41156;51.508;5.406;2023-01-26T01:25:18;102384.47;;;-1.43;100.00
54042;BME280;41156;51.508;5.406;2023-01-26T01:28:18;102377.06;;;-1.38;100.00
54042;BME280;41156;51.508;5.406;2023-01-26T01:31:18;102371.66;;;-1.37;100.00
54042;BME280;41156;51.508;5.406;2023-01-26T01:34:18;102368.91;;;-1.35;100.00
54042;BME280;41156;51.508;5.406;2023-01-26T01:37:19;102367.13;;;-1.35;100.00
54042;BME280;41156;51.508;5.406;2023-01-26T01:40:19;102376.69;;;-1.32;100.00
54042;BME280;41156;51.508;5.406;2023-01-26T01:43:20;102369.00;;;-1.37;100.00
54042;BME280;41156;51.508;5.406;2023-01-26T01:46:31;102373.38;;;-1.36;100.00
54042;BME280;41156;51.508;5.406;2023-01-26T01:49:36;102371.66;;;-1.37;100.00
54042;BME280;41156;51.508;5.406;2023-01-26T01:52:37;102373.47;;;-1.37;100.00
54042;BME280;41156;51.508;5.406;2023-01-26T01:55:38;102380.19;;;-1.32;100.00
54042;BME280;41156;51.508;5.406;2023-01-26T01:58:40;102382.06;;;-1.34;100.00
54042;BME280;41156;51.508;5.406;2023-01-26T02:01:42;102375.94;;;-1.34;100.00
54042;BME280;41156;51.508;5.406;2023-01-26T02:04:42;102373.09;;;-1.31;100.00
54042;BME280;41156;51.508;5.406;2023-01-26T02:07:44;102373.09;;;-1.31;100.00
54042;BME280;41156;51.508;5.406;2023-01-26T02:10:46;102372.88;;;-1.28;100.00
54042;BME280;41156;51.508;5.406;2023-01-26T02:13:48;102361.22;;;-1.25;100.00
54042;BME280;41156;51.508;5.406;2023-01-26T02:16:49;102358.47;;;-1.24;100.00
54042;BME280;41156;51.508;5.406;2023-01-26T02:26:31;102340.25;;;-1.16;100.00
54042;BME280;41156;51.508;5.406;2023-01-26T02:29:32;102343.72;;;-1.15;100.00
54042;BME280;41156;51.508;5.406;2023-01-26T02:32:33;102344.91;;;-1.19;100.00
54042;BME280;41156;51.508;5.406;2023-01-26T02:35:33;102345.75;;;-1.19;100.00
54042;BME280;41156;51.508;5.406;2023-01-26T02:38:39;102336.84;;;-1.18;100.00
54042;BME280;41156;51.508;5.406;2023-01-26T02:41:40;102339.50;;;-1.18;100.00
54042;BME280;41156;51.508;5.406;2023-01-26T02:44:59;102341.97;;;-1.15;100.00
54042;BME280;41156;51.508;5.406;2023-01-26T02:47:59;102338.34;;;-1.14;100.00
54042;BME280;41156;51.508;5.406;2023-01-26T02:51:04;102335.47;;;-1.10;100.00
54042;BME280;41156;51.508;5.406;2023-01-26T02:54:04;102330.91;;;-1.08;100.00
54042;BME280;41156;51.508;5.406;2023-01-26T02:57:04;102323.72;;;-1.06;100.00
54042;BME280;41156;51.508;5.406;2023-01-26T03:00:10;102329.78;;;-1.04;100.00
54042;BME280;41156;51.508;5.406;2023-01-26T03:03:13;102330.50;;;-1.02;100.00
54042;BME280;41156;51.508;5.406;2023-01-26T03:06:15;102326.91;;;-1.01;100.00
54042;BME280;41156;51.508;5.406;2023-01-26T03:09:16;102322.75;;;-1.05;100.00
54042;BME280;41156;51.508;5.406;2023-01-26T03:12:16;102329.69;;;-1.03;100.00
54042;BME280;41156;51.508;5.406;2023-01-26T03:15:16;102324.56;;;-1.06;100.00
54042;BME280;41156;51.508;5.406;2023-01-26T03:18:35;102331.59;;;-1.05;100.00
54042;BME280;41156;51.508;5.406;2023-01-26T03:21:54;102326.03;;;-1.02;100.00
54042;BME280;41156;51.508;5.406;2023-01-26T03:25:13;102326.03;;;-1.02;100.00
54042;BME280;41156;51.508;5.406;2023-01-26T03:28:32;102325.09;;;-1.01;100.00
54042;BME280;41156;51.508;5.406;2023-01-26T03:31:33;102322.34;;;-0.99;100.00
54042;BME280;41156;51.508;5.406;2023-01-26T03:34:33;102325.00;;;-0.99;100.00
54042;BME280;41156;51.508;5.406;2023-01-26T03:37:33;102324.91;;;-0.98;100.00
54042;BME280;41156;51.508;5.406;2023-01-26T03:40:36;102323.19;;;-0.99;100.00
54042;BME280;41156;51.508;5.406;2023-01-26T03:43:54;102312.47;;;-0.97;100.00
54042;BME280;41156;51.508;5.406;2023-01-26T03:47:13;102323.94;;;-0.97;100.00
54042;BME280;41156;51.508;5.406;2023-01-26T03:50:32;102319.28;;;-0.93;100.00
54042;BME280;41156;51.508;5.406;2023-01-26T03:53:51;102312.06;;;-0.91;100.00
54042;BME280;41156;51.508;5.406;2023-01-26T03:57:10;102318.97;;;-0.88;100.00
54042;BME280;41156;51.508;5.406;2023-01-26T04:00:11;102318.84;;;-0.87;100.00
54042;BME280;41156;51.508;5.406;2023-01-26T04:03:14;102309.97;;;-0.86;100.00
54042;BME280;41156;51.508;5.406;2023-01-26T04:06:33;102306.25;;;-0.83;100.00
54042;BME280;41156;51.508;5.406;2023-01-26T04:09:53;102311.44;;;-0.82;100.00
54042;BME280;41156;51.508;5.406;2023-01-26T04:12:53;102302.53;;;-0.81;100.00
54042;BME280;41156;51.508;5.406;2023-01-26T04:16:12;102309.56;;;-0.80;100.00
54042;BME280;41156;51.508;5.406;2023-01-26T04:19:31;102302.22;;;-0.76;100.00
54042;BME280;41156;51.508;5.406;2023-01-26T04:22:50;102314.41;;;-0.73;100.00
54042;BME280;41156;51.508;5.406;2023-01-26T04:25:50;102310.81;;;-0.72;100.00
54042;BME280;41156;51.508;5.406;2023-01-26T04:28:51;102305.50;;;-0.72;100.00
54042;BME280;41156;51.508;5.406;2023-01-26T04:31:51;102303.81;;;-0.73;100.00
54042;BME280;41156;51.508;5.406;2023-01-26T04:34:51;102301.03;;;-0.72;100.00
54042;BME280;41156;51.508;5.406;2023-01-26T04:37:52;102305.50;;;-0.72;100.00
54042;BME280;41156;51.508;5.406;2023-01-26T04:40:52;102308.91;;;-0.70;100.00
54042;BME280;41156;51.508;5.406;2023-01-26T04:43:53;102303.50;;;-0.69;100.00
54042;BME280;41156;51.508;5.406;2023-01-26T04:46:53;102301.69;;;-0.68;100.00
54042;BME280;41156;51.508;5.406;2023-01-26T04:49:54;102306.97;;;-0.68;100.00
54042;BME280;41156;51.508;5.406;2023-01-26T04:52:54;102306.78;;;-0.65;100.00
54042;BME280;41156;51.508;5.406;2023-01-26T04:55:54;102305.72;;;-0.63;100.00
54042;BME280;41156;51.508;5.406;2023-01-26T04:58:57;102304.91;;;-0.63;100.00
54042;BME280;41156;51.508;5.406;2023-01-26T05:01:58;102313.69;;;-0.63;100.00
54042;BME280;41156;51.508;5.406;2023-01-26T05:04:58;102302.97;;;-0.61;100.00
54042;BME280;41156;51.508;5.406;2023-01-26T05:07:58;102308.28;;;-0.61;100.00
54042;BME280;41156;51.508;5.406;2023-01-26T05:10:58;102302.78;;;-0.58;100.00
54042;BME280;41156;51.508;5.406;2023-01-26T05:13:59;102299.13;;;-0.57;100.00
54042;BME280;41156;51.508;5.406;2023-01-26T05:16:59;102300.00;;;-0.57;100.00
54042;BME280;41156;51.508;5.406;2023-01-26T05:19:59;102302.53;;;-0.55;100.00
54042;BME280;41156;51.508;5.406;2023-01-26T05:23:00;102291.06;;;-0.56;100.00
54042;BME280;41156;51.508;5.406;2023-01-26T05:26:00;102299.13;;;-0.57;100.00
54042;BME280;41156;51.508;5.406;2023-01-26T05:29:00;102300.94;;;-0.58;100.00
54042;BME280;41156;51.508;5.406;2023-01-26T05:32:01;102299.13;;;-0.57;100.00
54042;BME280;41156;51.508;5.406;2023-01-26T05:35:02;102300.75;;;-0.54;100.00
54042;BME280;41156;51.508;5.406;2023-01-26T05:38:02;102314.75;;;-0.52;100.00
54042;BME280;41156;51.508;5.406;2023-01-26T05:41:05;102305.31;;;-0.57;100.00
54042;BME280;41156;51.508;5.406;2023-01-26T05:44:07;102305.31;;;-0.57;100.00
54042;BME280;41156;51.508;5.406;2023-01-26T05:47:07;102305.06;;;-0.53;100.00
54042;BME280;41156;51.508;5.406;2023-01-26T05:50:07;102314.88;;;-0.54;100.00
54042;BME280;41156;51.508;5.406;2023-01-26T05:53:08;102305.94;;;-0.53;100.00
54042;BME280;41156;51.508;5.406;2023-01-26T05:56:08;102304.03;;;-0.51;100.00
54042;BME280;41156;51.508;5.406;2023-01-26T05:59:09;102304.97;;;-0.52;100.00
54042;BME280;41156;51.508;5.406;2023-01-26T06:02:12;102310.19;;;-0.50;100.00
54042;BME280;41156;51.508;5.406;2023-01-26T06:05:12;102304.97;;;-0.52;100.00
54042;BME280;41156;51.508;5.406;2023-01-26T06:08:13;102315.38;;;-0.49;100.00
54042;BME280;41156;51.508;5.406;2023-01-26T06:11:13;102314.44;;;-0.48;100.00
54042;BME280;41156;51.508;5.406;2023-01-26T06:14:14;102317.84;;;-0.46;100.00
54042;BME280;41156;51.508;5.406;2023-01-26T06:17:15;102316.91;;;-0.45;100.00
54042;BME280;41156;51.508;5.406;2023-01-26T06:20:16;102327.53;;;-0.45;100.00
54042;BME280;41156;51.508;5.406;2023-01-26T06:23:16;102328.47;;;-0.46;100.00
54042;BME280;41156;51.508;5.406;2023-01-26T06:26:17;102316.78;;;-0.43;100.00
54042;BME280;41156;51.508;5.406;2023-01-26T06:29:17;102320.38;;;-0.44;100.00
54042;BME280;41156;51.508;5.406;2023-01-26T06:32:17;102317.09;;;-0.35;100.00
54042;BME280;41156;51.508;5.406;2023-01-26T06:35:18;102320.91;;;-0.39;100.00
54042;BME280;41156;51.508;5.406;2023-01-26T06:38:18;102324.66;;;-0.42;100.00
54042;BME280;41156;51.508;5.406;2023-01-26T06:41:18;102327.31;;;-0.42;100.00
54042;BME280;41156;51.508;5.406;2023-01-26T06:44:19;102336.22;;;-0.43;100.00
54042;BME280;41156;51.508;5.406;2023-01-26T06:47:19;102330.91;;;-0.43;100.00
54042;BME280;41156;51.508;5.406;2023-01-26T06:50:25;102335.28;;;-0.42;100.00
54042;BME280;41156;51.508;5.406;2023-01-26T06:53:32;102330.06;;;-0.43;100.00
54042;BME280;41156;51.508;5.406;2023-01-26T06:56:33;102333.56;;;-0.43;100.00
54042;BME280;41156;51.508;5.406;2023-01-26T06:59:34;102337.16;;;-0.44;100.00
54042;BME280;41156;51.508;5.406;2023-01-26T07:02:34;102336.44;;;-0.46;100.00
54042;BME280;41156;51.508;5.406;2023-01-26T07:05:35;102336.31;;;-0.44;100.00
54042;BME280;41156;51.508;5.406;2023-01-26T07:08:35;102331.84;;;-0.44;100.00
54042;BME280;41156;51.508;5.406;2023-01-26T07:11:36;102341.53;;;-0.43;100.00
54042;BME280;41156;51.508;5.406;2023-01-26T07:14:36;102339.72;;;-0.42;100.00
54042;BME280;41156;51.508;5.406;2023-01-26T07:17:38;102345.03;;;-0.42;100.00
54042;BME280;41156;51.508;5.406;2023-01-26T07:20:38;102346.94;;;-0.44;100.00
54042;BME280;41156;51.508;5.406;2023-01-26T07:23:38;102354.91;;;-0.44;100.00
54042;BME280;41156;51.508;5.406;2023-01-26T07:26:39;102352.25;;;-0.44;100.00
54042;BME280;41156;51.508;5.406;2023-01-26T07:29:39;102348.75;;;-0.45;100.00
54042;BME280;41156;51.508;5.406;2023-01-26T07:32:39;102345.91;;;-0.42;100.00
54042;BME280;41156;51.508;5.406;2023-01-26T07:35:40;102349.28;;;-0.40;100.00
54042;BME280;41156;51.508;5.406;2023-01-26T07:38:40;102356.09;;;-0.35;100.00
54042;BME280;41156;51.508;5.406;2023-01-26T07:41:40;102352.47;;;-0.34;100.00
54042;BME280;41156;51.508;5.406;2023-01-26T07:44:41;102345.44;;;-0.35;100.00
54042;BME280;41156;51.508;5.406;2023-01-26T07:47:41;102344.72;;;-0.38;100.00
54042;BME280;41156;51.508;5.406;2023-01-26T07:50:41;102353.53;;;-0.37;100.00
54042;BME280;41156;51.508;5.406;2023-01-26T07:53:42;102357.91;;;-0.36;100.00
54042;BME280;41156;51.508;5.406;2023-01-26T07:56:44;102363.94;;;-0.34;100.00
54042;BME280;41156;51.508;5.406;2023-01-26T07:59:44;102370.97;;;-0.33;100.00
54042;BME280;41156;51.508;5.406;2023-01-26T08:02:48;102368.31;;;-0.33;100.00
54042;BME280;41156;51.508;5.406;2023-01-26T08:05:51;102372.53;;;-0.30;100.00
54042;BME280;41156;51.508;5.406;2023-01-26T08:08:52;102372.66;;;-0.32;100.00
54042;BME280;41156;51.508;5.406;2023-01-26T08:11:56;102370.88;;;-0.31;100.00
54042;BME280;41156;51.508;5.406;2023-01-26T08:14:56;102377.84;;;-0.30;100.00
54042;BME280;41156;51.508;5.406;2023-01-26T08:17:57;102381.38;;;-0.30;100.00
54042;BME280;41156;51.508;5.406;2023-01-26T08:20:57;102376.72;;;-0.26;100.00
54042;BME280;41156;51.508;5.406;2023-01-26T08:23:58;102380.09;;;-0.24;100.00
54042;BME280;41156;51.508;5.406;2023-01-26T08:27:02;102379.38;;;-0.26;100.00
54042;BME280;41156;51.508;5.406;2023-01-26T08:30:02;102381.81;;;-0.23;100.00
54042;BME280;41156;51.508;5.406;2023-01-26T08:33:03;102373.84;;;-0.23;100.00
54042;BME280;41156;51.508;5.406;2023-01-26T08:36:06;102381.72;;;-0.22;100.00
54042;BME280;41156;51.508;5.406;2023-01-26T08:39:08;102386.88;;;-0.20;100.00
54042;BME280;41156;51.508;5.406;2023-01-26T08:42:08;102387.66;;;-0.18;100.00
54042;BME280;41156;51.508;5.406;2023-01-26T08:45:09;102391.16;;;-0.17;100.00
54042;BME280;41156;51.508;5.406;2023-01-26T08:48:09;102383.09;;;-0.16;100.00
54042;BME280;41156;51.508;5.406;2023-01-26T08:51:09;102391.78;;;-0.14;100.00
54042;BME280;41156;51.508;5.406;2023-01-26T08:54:10;102389.88;;;-0.12;100.00
54042;BME280;41156;51.508;5.406;2023-01-26T08:57:10;102398.81;;;-0.13;100.00
54042;BME280;41156;51.508;5.406;2023-01-26T09:00:11;102401.38;;;-0.11;100.00
54042;BME280;41156;51.508;5.406;2023-01-26T09:03:12;102388.72;;;-0.08;100.00
54042;BME280;41156;51.508;5.406;2023-01-26T09:06:13;102393.72;;;-0.03;100.00
54042;BME280;41156;51.508;5.406;2023-01-26T09:09:14;102390.72;;;0.02;100.00
54042;BME280;41156;51.508;5.406;2023-01-26T09:12:15;102397.53;;;0.06;100.00
54042;BME280;41156;51.508;5.406;2023-01-26T09:15:15;102389.22;;;0.10;100.00
54042;BME280;41156;51.508;5.406;2023-01-26T09:18:16;102396.13;;;0.13;100.00
54042;BME280;41156;51.508;5.406;2023-01-26T09:21:17;102392.41;;;0.15;100.00
54042;BME280;41156;51.508;5.406;2023-01-26T09:24:17;102403.03;;;0.15;100.00
54042;BME280;41156;51.508;5.406;2023-01-26T09:27:17;102397.84;;;0.14;100.00
54042;BME280;41156;51.508;5.406;2023-01-26T09:30:18;102394.19;;;0.15;100.00
54042;BME280;41156;51.508;5.406;2023-01-26T09:33:18;102400.19;;;0.18;100.00
54042;BME280;41156;51.508;5.406;2023-01-26T09:36:20;102398.47;;;0.17;100.00
54042;BME280;41156;51.508;5.406;2023-01-26T09:39:20;102402.94;;;0.17;100.00
54042;BME280;41156;51.508;5.406;2023-01-26T09:42:44;102405.50;;;0.18;100.00
54042;BME280;41156;51.508;5.406;2023-01-26T09:46:07;102407.06;;;0.21;100.00
54042;BME280;41156;51.508;5.406;2023-01-26T09:49:19;102404.09;;;0.26;100.00
54042;BME280;41156;51.508;5.406;2023-01-26T09:55:40;102411.75;;;0.30;100.00
54042;BME280;41156;51.508;5.406;2023-01-26T09:58:45;102406.66;;;0.27;100.00
54042;BME280;41156;51.508;5.406;2023-01-26T10:01:55;102407.28;;;0.31;100.00
54042;BME280;41156;51.508;5.406;2023-01-26T10:05:13;102405.34;;;0.33;100.00
54042;BME280;41156;51.508;5.406;2023-01-26T10:08:17;102405.34;;;0.33;100.00
54042;BME280;41156;51.508;5.406;2023-01-26T10:11:26;102399.06;;;0.34;100.00
54042;BME280;41156;51.508;5.406;2023-01-26T10:14:59;102406.63;;;0.40;100.00
54042;BME280;41156;51.508;5.406;2023-01-26T10:18:03;102407.25;;;0.44;100.00
54042;BME280;41156;51.508;5.406;2023-01-26T10:21:06;102403.50;;;0.46;100.00
54042;BME280;41156;51.508;5.406;2023-01-26T10:24:10;102403.28;;;0.49;100.00
54042;BME280;41156;51.508;5.406;2023-01-26T10:27:11;102407.44;;;0.53;100.00
54042;BME280;41156;51.508;5.406;2023-01-26T10:30:18;102397.44;;;0.57;100.00
54042;BME280;41156;51.508;5.406;2023-01-26T10:33:26;102411.47;;;0.59;100.00
54042;BME280;41156;51.508;5.406;2023-01-26T10:36:30;102411.13;;;0.64;100.00
54042;BME280;41156;51.508;5.406;2023-01-26T10:39:31;102403.56;;;0.70;100.00
54042;BME280;41156;51.508;5.406;2023-01-26T10:42:33;102413.72;;;0.77;100.00
54042;BME280;41156;51.508;5.406;2023-01-26T10:45:44;102408.81;;;0.83;100.00
54042;BME280;41156;51.508;5.406;2023-01-26T10:48:51;102410.19;;;0.89;100.00
54042;BME280;41156;51.508;5.406;2023-01-26T10:55:19;102410.25;;;1.00;100.00
54042;BME280;41156;51.508;5.406;2023-01-26T11:01:51;102416.38;;;1.14;100.00
54042;BME280;41156;51.508;5.406;2023-01-26T11:08:30;102401.88;;;1.29;100.00
54042;BME280;41156;51.508;5.406;2023-01-26T11:11:31;102400.13;;;1.41;100.00
54042;BME280;41156;51.508;5.406;2023-01-26T11:14:32;102397.38;;;1.54;100.00
54042;BME280;41156;51.508;5.406;2023-01-26T11:17:54;102387.47;;;1.67;100.00
54042;BME280;41156;51.508;5.406;2023-01-26T11:21:02;102394.97;;;1.73;100.00
54042;BME280;41156;51.508;5.406;2023-01-26T11:24:21;102397.88;;;1.81;100.00
54042;BME280;41156;51.508;5.406;2023-01-26T11:28:01;102404.09;;;1.93;100.00
54042;BME280;41156;51.508;5.406;2023-01-26T11:31:19;102409.31;;;2.06;100.00
54042;BME280;41156;51.508;5.406;2023-01-26T11:37:51;102408.09;;;2.44;100.00
54042;BME280;41156;51.508;5.406;2023-01-26T11:47:47;102393.34;;;2.84;100.00
54042;BME280;41156;51.508;5.406;2023-01-26T11:51:03;102395.84;;;2.96;100.00
54042;BME280;41156;51.508;5.406;2023-01-26T11:54:22;102384.03;;;3.10;100.00
54042;BME280;41156;51.508;5.406;2023-01-26T11:57:47;102378.03;;;3.18;100.00
54042;BME280;41156;51.508;5.406;2023-01-26T12:00:55;102378.88;;;3.19;100.00
54042;BME280;41156;51.508;5.406;2023-01-26T12:03:57;102378.22;;;3.26;100.00
54042;BME280;41156;51.508;5.406;2023-01-26T12:07:02;102371.59;;;3.42;100.00
54042;BME280;41156;51.508;5.406;2023-01-26T12:10:06;102368.72;;;3.55;100.00
54042;BME280;41156;51.508;5.406;2023-01-26T12:13:17;102365.84;;;3.67;100.00
54042;BME280;41156;51.508;5.406;2023-01-26T12:20:02;102359.56;;;4.09;100.00
54042;BME280;41156;51.508;5.406;2023-01-26T12:26:16;102358.13;;;4.45;100.00
54042;BME280;41156;51.508;5.406;2023-01-26T12:29:22;102350.69;;;4.59;100.00
54042;BME280;41156;51.508;5.406;2023-01-26T12:32:24;102342.66;;;4.69;100.00
54042;BME280;41156;51.508;5.406;2023-01-26T12:38:49;102330.13;;;4.89;100.00
54042;BME280;41156;51.508;5.406;2023-01-26T12:45:27;102321.09;;;5.09;100.00
54042;BME280;41156;51.508;5.406;2023-01-26T12:48:46;102324.59;;;5.19;100.00
54042;BME280;41156;51.508;5.406;2023-01-26T12:51:52;102323.91;;;5.27;100.00
54042;BME280;41156;51.508;5.406;2023-01-26T12:55:06;102312.63;;;5.33;100.00
54042;BME280;41156;51.508;5.406;2023-01-26T12:58:23;102318.66;;;5.45;100.00
54042;BME280;41156;51.508;5.406;2023-01-26T13:01:26;102321.03;;;5.48;100.00
54042;BME280;41156;51.508;5.406;2023-01-26T13:04:35;102307.34;;;5.51;100.00
54042;BME280;41156;51.508;5.406;2023-01-26T13:07:38;102313.41;;;5.53;100.00
54042;BME280;41156;51.508;5.406;2023-01-26T13:10:47;102306.75;;;5.57;100.00
54042;BME280;41156;51.508;5.406;2023-01-26T13:13:53;102311.13;;;5.59;100.00
54042;BME280;41156;51.508;5.406;2023-01-26T13:16:54;102305.78;;;5.59;100.00
54042;BME280;41156;51.508;5.406;2023-01-26T13:19:54;102304.78;;;5.60;100.00
54042;BME280;41156;51.508;5.406;2023-01-26T13:22:58;102306.31;;;5.62;100.00
54042;BME280;41156;51.508;5.406;2023-01-26T13:26:18;102301.50;;;5.66;100.00
54042;BME280;41156;51.508;5.406;2023-01-26T13:32:52;102302.63;;;5.73;100.00
54042;BME280;41156;51.508;5.406;2023-01-26T13:35:52;102293.13;;;5.79;100.00
54042;BME280;41156;51.508;5.406;2023-01-26T13:38:58;102293.53;;;5.84;100.00
54042;BME280;41156;51.508;5.406;2023-01-26T13:42:00;102296.63;;;5.89;100.00
54042;BME280;41156;51.508;5.406;2023-01-26T13:45:15;102300.13;;;5.89;100.00
54042;BME280;41156;51.508;5.406;2023-01-26T13:48:29;102304.53;;;5.90;100.00
54042;BME280;41156;51.508;5.406;2023-01-26T13:51:33;102303.38;;;5.93;100.00
54042;BME280;41156;51.508;5.406;2023-01-26T13:54:34;102312.00;;;5.97;100.00
54042;BME280;41156;51.508;5.406;2023-01-26T13:57:34;102305.22;;;5.92;100.00
54042;BME280;41156;51.508;5.406;2023-01-26T14:00:35;102303.81;;;5.88;100.00
54042;BME280;41156;51.508;5.406;2023-01-26T14:03:36;102302.28;;;5.86;100.00
54042;BME280;41156;51.508;5.406;2023-01-26T14:06:37;102301.97;;;5.89;100.00
54042;BME280;41156;51.508;5.406;2023-01-26T14:09:48;102308.31;;;5.98;100.00
54042;BME280;41156;51.508;5.406;2023-01-26T14:12:53;102305.06;;;6.04;100.00
54042;BME280;41156;51.508;5.406;2023-01-26T14:15:59;102305.06;;;6.04;100.00
54042;BME280;41156;51.508;5.406;2023-01-26T14:19:05;102307.59;;;6.05;100.00
54042;BME280;41156;51.508;5.406;2023-01-26T14:22:11;102323.00;;;6.03;100.00
54042;BME280;41156;51.508;5.406;2023-01-26T14:25:17;102317.63;;;6.03;100.00
54042;BME280;41156;51.508;5.406;2023-01-26T14:28:21;102320.31;;;6.03;100.00
54042;BME280;41156;51.508;5.406;2023-01-26T14:31:25;102317.63;;;6.03;100.00
54042;BME280;41156;51.508;5.406;2023-01-26T14:34:28;102320.75;;;5.99;100.00
54042;BME280;41156;51.508;5.406;2023-01-26T14:37:29;102318.47;;;5.94;100.00
54042;BME280;41156;51.508;5.406;2023-01-26T14:40:29;102321.88;;;5.96;100.00
54042;BME280;41156;51.508;5.406;2023-01-26T14:43:29;102320.19;;;5.95;100.00
54042;BME280;41156;51.508;5.406;2023-01-26T14:47:15;102324.84;;;5.93;100.00
54042;BME280;41156;51.508;5.406;2023-01-26T14:49:55;102326.38;;;5.96;100.00
54042;BME280;41156;51.508;5.406;2023-01-26T14:52:57;102324.56;;;5.96;100.00
54042;BME280;41156;51.508;5.406;2023-01-26T14:55:57;102323.44;;;5.99;100.00
54042;BME280;41156;51.508;5.406;2023-01-26T14:58:58;102325.44;;;5.97;100.00
54042;BME280;41156;51.508;5.406;2023-01-26T15:02:26;102333.47;;;5.97;100.00
54042;BME280;41156;51.508;5.406;2023-01-26T15:05:35;102330.06;;;5.95;100.00
54042;BME280;41156;51.508;5.406;2023-01-26T15:08:36;102324.72;;;5.95;100.00
54042;BME280;41156;51.508;5.406;2023-01-26T15:11:39;102332.50;;;5.88;100.00
54042;BME280;41156;51.508;5.406;2023-01-26T15:14:58;102324.50;;;5.78;100.00
54042;BME280;41156;51.508;5.406;2023-01-26T15:18:05;102326.34;;;5.68;100.00
54042;BME280;41156;51.508;5.406;2023-01-26T15:21:14;102320.00;;;5.59;100.00
54042;BME280;41156;51.508;5.406;2023-01-26T15:24:17;102322.44;;;5.52;100.00
54042;BME280;41156;51.508;5.406;2023-01-26T15:27:17;102322.72;;;5.49;100.00
54042;BME280;41156;51.508;5.406;2023-01-26T15:30:23;102320.03;;;5.49;100.00
54042;BME280;41156;51.508;5.406;2023-01-26T15:33:48;102318.91;;;5.52;100.00
54042;BME280;41156;51.508;5.406;2023-01-26T15:36:49;102326.53;;;5.56;100.00
54042;BME280;41156;51.508;5.406;2023-01-26T15:39:50;102321.56;;;5.62;100.00
54042;BME280;41156;51.508;5.406;2023-01-26T15:42:50;102322.41;;;5.62;100.00
54042;BME280;41156;51.508;5.406;2023-01-26T15:45:55;102319.03;;;5.60;100.00
54042;BME280;41156;51.508;5.406;2023-01-26T15:48:56;102324.53;;;5.59;100.00
54042;BME280;41156;51.508;5.406;2023-01-26T15:51:56;102324.53;;;5.59;100.00
54042;BME280;41156;51.508;5.406;2023-01-26T15:54:57;102320.16;;;5.57;100.00
54042;BME280;41156;51.508;5.406;2023-01-26T15:57:57;102321.47;;;5.53;100.00
54042;BME280;41156;51.508;5.406;2023-01-26T16:00:57;102324.81;;;5.55;100.00
54042;BME280;41156;51.508;5.406;2023-01-26T16:03:58;102322.16;;;5.55;100.00
54042;BME280;41156;51.508;5.406;2023-01-26T16:06:58;102323.31;;;5.53;100.00
54042;BME280;41156;51.508;5.406;2023-01-26T16:09:58;102326.69;;;5.55;100.00
54042;BME280;41156;51.508;5.406;2023-01-26T16:12:58;102324.28;;;5.52;100.00
54042;BME280;41156;51.508;5.406;2023-01-26T16:15:59;102331.50;;;5.51;100.00
54042;BME280;41156;51.508;5.406;2023-01-26T16:18:59;102335.16;;;5.50;100.00
54042;BME280;41156;51.508;5.406;2023-01-26T16:21:59;102326.28;;;5.50;100.00
54042;BME280;41156;51.508;5.406;2023-01-26T16:25:00;102332.75;;;5.47;100.00
54042;BME280;41156;51.508;5.406;2023-01-26T16:28:00;102332.06;;;5.45;100.00
54042;BME280;41156;51.508;5.406;2023-01-26T16:31:01;102334.03;;;5.43;100.00
54042;BME280;41156;51.508;5.406;2023-01-26T16:34:02;102339.41;;;5.43;100.00
54042;BME280;41156;51.508;5.406;2023-01-26T16:37:02;102351.81;;;5.44;100.00
54042;BME280;41156;51.508;5.406;2023-01-26T16:40:03;102350.13;;;5.43;100.00
54042;BME280;41156;51.508;5.406;2023-01-26T16:43:04;102351.09;;;5.42;100.00